createdAt,value
2019-04-11T00:01:14.866Z,21.00
2019-04-11T00:03:45.938Z,20.07
2019-04-11T00:06:17.258Z,20.73
2019-04-11T00:08:49.945Z,19.07
2019-04-11T00:11:21.825Z,20.87
2019-04-11T00:13:52.193Z,17.33
2019-04-11T00:16:23.549Z,18.13
2019-04-11T00:18:54.740Z,18.97
2019-04-11T00:21:25.098Z,19.63
2019-04-11T00:23:56.532Z,18.67
2019-04-11T00:26:28.566Z,21.73
2019-04-11T00:29:00.345Z,21.67
2019-04-11T00:31:30.722Z,17.53
2019-04-11T00:34:02.569Z,20.83
2019-04-11T00:36:34.610Z,20.33
2019-04-11T00:39:08.046Z,21.40
2019-04-11T00:41:38.361Z,22.57
2019-04-11T00:44:08.539Z,24.10
2019-04-11T00:46:38.775Z,23.83
2019-04-11T00:49:10.214Z,20.93
2019-04-11T00:51:42.250Z,23.87
2019-04-11T00:54:14.201Z,25.57
2019-04-11T00:56:44.609Z,24.47
2019-04-11T00:59:14.808Z,22.80
2019-04-11T01:01:45.052Z,24.40
2019-04-11T01:04:15.833Z,20.83
2019-04-11T01:06:46.718Z,22.67
2019-04-11T01:09:17.992Z,22.00
2019-04-11T01:11:48.394Z,23.13
2019-04-11T01:14:18.609Z,21.83
2019-04-11T01:16:50.680Z,23.37
2019-04-11T01:19:21.117Z,20.03
2019-04-11T01:21:52.934Z,22.40
2019-04-11T01:24:23.869Z,21.97
2019-04-11T01:26:54.219Z,22.23
2019-04-11T01:29:25.194Z,20.00
2019-04-11T01:32:00.210Z,20.00
2019-04-11T01:34:32.850Z,23.10
2019-04-11T01:37:03.790Z,21.57
2019-04-11T01:39:43.295Z,22.67
2019-04-11T01:42:13.797Z,20.70
2019-04-11T01:44:45.849Z,22.10
2019-04-11T01:47:23.817Z,20.57
2019-04-11T01:49:54.663Z,20.53
2019-04-11T01:52:26.535Z,19.07
2019-04-11T01:54:56.892Z,20.43
2019-04-11T01:57:27.613Z,20.10
2019-04-11T01:59:58.293Z,20.73
2019-04-11T02:02:54.839Z,19.63
2019-04-11T02:05:27.236Z,20.43
2019-04-11T02:07:58.649Z,19.07
2019-04-11T02:10:28.938Z,18.47
2019-04-11T02:12:59.720Z,20.60
2019-04-11T02:15:30.433Z,19.73
2019-04-11T02:19:37.153Z,20.47
2019-04-11T02:22:28.571Z,18.97
2019-04-11T02:25:05.997Z,19.27
2019-04-11T02:27:36.830Z,22.03
2019-04-11T02:30:10.674Z,20.37
2019-04-11T02:32:42.685Z,19.50
2019-04-11T02:35:13.467Z,19.13
2019-04-11T02:37:47.654Z,18.07
2019-04-11T02:40:20.050Z,18.70
2019-04-11T02:42:51.845Z,18.07
2019-04-11T02:45:35.523Z,18.77
2019-04-11T02:47:56.379Z,18.10
2019-04-11T02:50:26.794Z,18.10
2019-04-11T02:52:58.478Z,17.60
2019-04-11T02:55:29.494Z,18.03
2019-04-11T02:58:01.821Z,18.37
2019-04-11T03:00:35.072Z,19.73
2019-04-11T03:03:05.707Z,17.97
2019-04-11T03:05:37.539Z,17.17
2019-04-11T03:08:12.026Z,16.87
2019-04-11T03:10:41.564Z,19.27
2019-04-11T03:13:13.287Z,16.57
2019-04-11T03:15:59.307Z,15.90
2019-04-11T03:18:38.570Z,19.50
2019-04-11T03:20:55.374Z,18.50
2019-04-11T03:23:21.221Z,17.67
2019-04-11T03:25:52.434Z,17.63
2019-04-11T03:28:27.528Z,15.60
2019-04-11T03:31:27.476Z,18.57
2019-04-11T03:34:24.992Z,15.00
2019-04-11T03:36:56.693Z,18.60
2019-04-11T03:38:55.460Z,15.80
2019-04-11T03:41:24.969Z,16.63
2019-04-11T03:43:52.997Z,14.77
2019-04-11T03:46:30.171Z,15.93
2019-04-11T03:48:57.341Z,13.67
2019-04-11T03:51:17.982Z,16.80
2019-04-11T03:53:49.081Z,14.60
2019-04-11T03:56:21.380Z,14.47
2019-04-11T03:58:53.430Z,15.40
2019-04-11T04:01:25.201Z,14.17
2019-04-11T04:03:58.199Z,16.50
2019-04-11T04:06:28.922Z,15.33
2019-04-11T04:09:02.611Z,15.10
2019-04-11T04:11:34.787Z,14.70
2019-04-11T04:14:19.861Z,14.57
2019-04-11T04:17:14.730Z,16.00
2019-04-11T04:20:05.108Z,15.43
2019-04-11T04:22:47.426Z,14.00
2019-04-11T04:25:18.338Z,13.93
2019-04-11T04:27:51.211Z,13.90
2019-04-11T04:30:22.151Z,13.23
2019-04-11T04:32:54.611Z,11.83
2019-04-11T04:35:27.662Z,13.10
2019-04-11T04:37:59.194Z,13.17
2019-04-11T04:40:50.055Z,12.37
2019-04-11T04:43:07.449Z,20.17
2019-04-11T04:45:57.799Z,13.43
2019-04-11T04:48:12.456Z,13.33
2019-04-11T04:50:42.231Z,12.07
2019-04-11T04:53:13.759Z,11.83
2019-04-11T04:55:45.644Z,10.47
2019-04-11T04:58:18.044Z,13.23
2019-04-11T05:00:51.094Z,13.23
2019-04-11T05:03:22.209Z,11.73
2019-04-11T05:05:53.411Z,11.87
2019-04-11T05:08:27.234Z,12.23
2019-04-11T05:10:57.971Z,11.80
2019-04-11T05:13:30.188Z,13.67
2019-04-11T05:16:09.619Z,10.53
2019-04-11T05:18:32.505Z,12.20
2019-04-11T05:21:03.343Z,11.53
2019-04-11T05:23:33.931Z,11.30
2019-04-11T05:26:04.140Z,12.47
2019-04-11T05:28:35.318Z,10.97
2019-04-11T05:31:06.069Z,12.20
2019-04-11T05:33:36.993Z,11.80
2019-04-11T05:36:08.175Z,11.63
2019-04-11T05:38:38.560Z,13.27
2019-04-11T05:41:12.036Z,11.30
2019-04-11T05:43:41.782Z,11.03
2019-04-11T05:46:29.898Z,11.57
2019-04-11T05:49:16.918Z,11.10
2019-04-11T05:51:58.613Z,9.27
2019-04-11T05:54:33.230Z,10.70
2019-04-11T05:57:03.882Z,9.80
2019-04-11T05:59:34.799Z,10.00
2019-04-11T06:02:13.011Z,9.87
2019-04-11T06:04:51.778Z,8.97
2019-04-11T06:07:30.596Z,9.93
2019-04-11T06:10:08.508Z,10.20
2019-04-11T06:13:10.072Z,8.93
2019-04-11T06:15:44.318Z,10.90
2019-04-11T06:18:44.632Z,9.90
2019-04-11T06:21:24.336Z,10.37
2019-04-11T06:24:03.566Z,11.70
2019-04-11T06:27:04.048Z,8.80
2019-04-11T06:30:01.303Z,8.63
2019-04-11T06:33:05.952Z,8.50
2019-04-11T06:35:55.071Z,11.37
2019-04-11T06:38:51.928Z,9.07
2019-04-11T06:41:30.495Z,9.20
2019-04-11T06:44:32.627Z,8.33
2019-04-11T06:47:40.911Z,8.83
2019-04-11T06:50:29.153Z,8.87
2019-04-11T06:53:00.314Z,9.10
2019-04-11T06:55:48.579Z,6.73
2019-04-11T06:58:23.498Z,8.93
2019-04-11T07:01:01.339Z,7.20
2019-04-11T07:03:36.294Z,6.67
2019-04-11T07:06:13.375Z,8.87
2019-04-11T07:08:52.633Z,7.10
2019-04-11T07:11:27.616Z,9.07
2019-04-11T07:14:08.257Z,7.67
2019-04-11T07:17:04.068Z,8.13
2019-04-11T07:20:06.803Z,7.20
2019-04-11T07:22:55.319Z,9.00
2019-04-11T07:25:47.357Z,7.93
2019-04-11T07:28:34.336Z,6.83
2019-04-11T07:31:23.366Z,7.23
2019-04-11T07:34:17.146Z,7.13
2019-04-11T07:37:06.809Z,8.10
2019-04-11T07:40:03.318Z,6.70
2019-04-11T07:42:47.235Z,7.03
2019-04-11T07:45:23.136Z,8.77
2019-04-11T07:47:58.943Z,7.47
2019-04-11T07:50:29.421Z,6.57
2019-04-11T07:53:03.127Z,7.87
2019-04-11T07:55:34.384Z,6.58
2019-04-11T07:58:21.645Z,7.40
2019-04-11T08:01:10.380Z,6.33
2019-04-11T08:04:03.765Z,7.73
2019-04-11T08:06:54.086Z,7.80
2019-04-11T08:09:50.585Z,7.60
2019-04-11T08:12:27.668Z,8.67
2019-04-11T08:15:29.381Z,8.00
2019-04-11T08:18:04.095Z,8.63
2019-04-11T08:20:57.427Z,8.67
2019-04-11T08:23:27.873Z,8.37
2019-04-11T08:26:16.199Z,8.57
2019-04-11T08:28:59.590Z,10.27
2019-04-11T08:31:48.808Z,7.70
2019-04-11T08:34:21.775Z,9.80
2019-04-11T08:37:11.580Z,10.80
2019-04-11T08:39:45.536Z,8.97
2019-04-11T08:42:46.706Z,8.87
2019-04-11T08:45:17.738Z,7.93
2019-04-11T08:47:54.345Z,7.83
2019-04-11T08:50:26.181Z,9.50
2019-04-11T08:53:04.585Z,8.53
2019-04-11T08:55:48.599Z,10.60
2019-04-11T08:58:16.826Z,9.87
2019-04-11T09:00:56.045Z,9.50
2019-04-11T09:04:04.658Z,8.40
2019-04-11T09:06:32.506Z,8.30
2019-04-11T09:09:21.018Z,8.40
2019-04-11T09:12:02.989Z,9.00
2019-04-11T09:14:58.310Z,8.47
2019-04-11T09:17:31.811Z,8.00
2019-04-11T09:20:21.288Z,7.37
2019-04-11T09:23:20.152Z,8.73
2019-04-11T09:26:23.568Z,7.72
2019-04-11T09:28:57.665Z,8.53
2019-04-11T09:32:00.110Z,7.57
2019-04-11T09:34:46.150Z,9.20
2019-04-11T09:37:33.852Z,8.53
2019-04-11T09:40:24.017Z,7.97
2019-04-11T09:43:32.006Z,7.70
2019-04-11T09:46:19.429Z,7.23
2019-04-11T09:49:08.921Z,7.87
2019-04-11T09:52:10.514Z,7.50
2019-04-11T09:54:58.847Z,9.33
2019-04-11T09:57:35.005Z,7.20
2019-04-11T10:00:27.002Z,7.77
2019-04-11T10:03:36.574Z,8.53
2019-04-11T10:06:25.857Z,7.00
2019-04-11T10:08:59.624Z,8.10
2019-04-11T10:11:55.055Z,5.40
2019-04-11T10:14:29.399Z,5.77
2019-04-11T10:17:17.508Z,5.70
2019-04-11T10:20:06.690Z,6.93
2019-04-11T10:23:05.837Z,6.50
2019-04-11T10:25:55.941Z,5.50
2019-04-11T10:28:49.592Z,4.57
2019-04-11T10:31:22.373Z,6.07
2019-04-11T10:34:14.823Z,6.20
2019-04-11T10:36:57.115Z,5.37
2019-04-11T10:39:46.702Z,5.17
2019-04-11T10:42:18.134Z,4.60
2019-04-11T10:45:06.717Z,5.03
2019-04-11T10:47:37.161Z,4.90
2019-04-11T10:50:34.056Z,5.03
2019-04-11T10:53:05.267Z,4.93
2019-04-11T10:56:10.716Z,1.23
2019-04-11T10:58:49.071Z,1.27
2019-04-11T11:01:38.469Z,3.30
2019-04-11T11:04:17.984Z,1.87
2019-04-11T11:06:51.814Z,1.60
2019-04-11T11:09:52.578Z,3.52
2019-04-11T11:12:45.465Z,4.78
2019-04-11T11:15:28.017Z,2.10
2019-04-11T11:20:55.097Z,1.95
2019-04-11T11:23:41.121Z,3.02
2019-04-11T11:26:24.776Z,4.60
2019-04-11T11:29:15.497Z,2.33
2019-04-11T11:31:49.706Z,2.60
2019-04-11T11:34:26.616Z,3.22
2019-04-11T11:37:15.846Z,3.02
2019-04-11T11:40:10.584Z,2.22
2019-04-11T11:43:10.668Z,4.10
2019-04-11T11:46:10.061Z,6.25
2019-04-11T11:48:54.259Z,4.45
2019-04-11T11:51:33.813Z,3.68
2019-04-11T11:54:16.012Z,2.77
2019-04-11T11:56:47.845Z,6.05
2019-04-11T11:59:34.523Z,2.15
2019-04-11T12:02:32.649Z,2.05
2019-04-11T12:05:18.535Z,2.45
2019-04-11T12:08:15.075Z,1.42
2019-04-11T12:10:47.063Z,0.72
2019-04-11T12:13:45.698Z,2.17
2019-04-11T12:16:39.628Z,2.08
2019-04-11T12:19:22.085Z,3.22
2019-04-11T12:21:53.774Z,1.75
2019-04-11T12:24:48.803Z,1.67
2019-04-11T12:27:44.166Z,2.62
2019-04-11T12:30:39.914Z,2.75
2019-04-11T12:33:33.132Z,3.60
2019-04-11T12:36:05.691Z,2.22
2019-04-11T12:38:59.515Z,2.30
2019-04-11T12:41:48.888Z,1.97
2019-04-11T12:44:44.337Z,3.37
2019-04-11T12:47:38.562Z,2.72
2019-04-11T12:50:30.769Z,3.75
2019-04-11T12:53:15.800Z,3.83
2019-04-11T12:55:55.632Z,2.70
2019-04-11T12:58:41.366Z,2.77
2019-04-11T13:01:31.739Z,2.67
2019-04-11T13:04:24.080Z,2.97
2019-04-11T13:07:28.714Z,7.42
2019-04-11T13:10:29.923Z,2.77
2019-04-11T13:13:19.307Z,1.35
2019-04-11T13:15:57.238Z,2.45
2019-04-11T13:19:04.997Z,3.10
2019-04-11T13:21:50.026Z,5.20
2019-04-11T13:24:37.863Z,1.20
2019-04-11T13:27:13.792Z,1.70
2019-04-11T13:30:03.026Z,1.67
2019-04-11T13:32:57.035Z,7.97
2019-04-11T13:36:04.921Z,3.70
2019-04-11T13:38:46.287Z,5.03
2019-04-11T13:41:51.056Z,4.35
2019-04-11T13:44:27.949Z,3.98
2019-04-11T13:47:35.933Z,4.85
2019-04-11T13:50:16.203Z,4.93
2019-04-11T13:53:03.383Z,5.05
2019-04-11T13:55:42.047Z,5.27
2019-04-11T13:58:43.157Z,4.53
2019-04-11T14:01:15.901Z,4.47
2019-04-11T14:04:07.861Z,5.90
2019-04-11T14:06:38.750Z,4.90
2019-04-11T14:09:32.874Z,4.87
2019-04-11T14:12:06.791Z,5.53
2019-04-11T14:14:42.515Z,4.90
2019-04-11T14:17:34.458Z,5.60
2019-04-11T14:20:28.268Z,4.30
2019-04-11T14:23:07.130Z,5.05
2019-04-11T14:26:11.808Z,6.00
2019-04-11T14:28:44.773Z,7.57
2019-04-11T14:31:50.970Z,4.50
2019-04-11T14:34:43.317Z,5.12
2019-04-11T14:37:38.259Z,8.53
2019-04-11T14:40:26.528Z,6.83
2019-04-11T14:43:22.519Z,4.87
2019-04-11T14:46:24.021Z,4.27
2019-04-11T14:49:10.197Z,4.85
2019-04-11T14:51:58.814Z,5.85
2019-04-11T14:54:41.257Z,5.83
2019-04-11T14:57:16.246Z,3.50
2019-04-11T14:59:49.068Z,3.17
2019-04-11T15:02:24.829Z,6.42
2019-04-11T15:05:13.843Z,2.23
2019-04-11T15:07:46.063Z,8.55
2019-04-11T15:10:51.386Z,4.85
2019-04-11T15:13:26.124Z,5.40
2019-04-11T15:16:21.171Z,4.33
2019-04-11T15:18:55.940Z,4.67
2019-04-11T15:21:48.219Z,4.60
2019-04-11T15:24:19.777Z,5.17
2019-04-11T15:27:18.196Z,4.83
2019-04-11T15:29:48.560Z,5.13
2019-04-11T15:32:51.484Z,6.20
2019-04-11T15:35:21.675Z,6.90
2019-04-11T15:38:09.809Z,6.63
2019-04-11T15:40:50.224Z,4.28
2019-04-11T15:43:42.019Z,4.35
2019-04-11T15:46:30.914Z,3.60
2019-04-11T15:49:21.958Z,2.58
2019-04-11T15:52:06.340Z,1.98
2019-04-11T15:54:43.379Z,1.40
2019-04-11T15:57:32.737Z,3.98
2019-04-11T16:00:28.235Z,4.17
2019-04-11T16:03:10.338Z,4.60
2019-04-11T16:06:01.644Z,5.47
2019-04-11T16:08:49.462Z,4.90
2019-04-11T16:11:54.144Z,4.20
2019-04-11T16:14:29.895Z,4.75
2019-04-11T16:17:37.186Z,4.40
2019-04-11T16:20:17.926Z,4.53
2019-04-11T16:23:15.619Z,1.70
2019-04-11T16:25:49.283Z,4.65
2019-04-11T16:28:38.221Z,3.15
2019-04-11T16:31:11.006Z,2.83
2019-04-11T16:34:05.409Z,3.15
2019-04-11T16:36:39.314Z,5.03
2019-04-11T16:39:38.257Z,3.40
2019-04-11T16:42:11.096Z,4.30
2019-04-11T16:45:00.290Z,3.80
2019-04-11T16:47:53.735Z,3.30
2019-04-11T16:50:25.132Z,4.33
2019-04-11T16:52:55.386Z,4.07
2019-04-11T16:55:25.640Z,3.93
2019-04-11T16:57:56.155Z,4.08
2019-04-11T17:00:26.612Z,4.97
2019-04-11T17:02:57.491Z,4.17
2019-04-11T17:05:28.137Z,4.53
2019-04-11T17:08:20.750Z,4.90
2019-04-11T17:11:05.815Z,5.00
2019-04-11T17:13:36.137Z,5.53
2019-04-11T17:16:09.933Z,4.70
2019-04-11T17:18:41.328Z,5.30
2019-04-11T17:21:11.862Z,5.23
2019-04-11T17:23:46.925Z,5.03
2019-04-11T17:26:14.410Z,5.60
2019-04-11T17:28:44.959Z,4.97
2019-04-11T17:31:15.228Z,5.33
2019-04-11T17:33:45.693Z,5.10
2019-04-11T17:36:16.121Z,6.47
2019-04-11T17:38:46.591Z,6.80
2019-04-11T17:41:16.942Z,4.67
2019-04-11T17:43:51.369Z,5.03
2019-04-11T17:46:19.716Z,5.30
2019-04-11T17:48:50.521Z,4.43
2019-04-11T17:51:21.124Z,5.53
2019-04-11T17:53:54.827Z,4.83
2019-04-11T17:56:25.485Z,5.20
2019-04-11T17:58:58.141Z,5.30
2019-04-11T18:01:28.931Z,5.03
2019-04-11T18:03:59.153Z,4.97
2019-04-11T18:06:29.327Z,4.87
2019-04-11T18:08:59.530Z,4.93
2019-04-11T18:11:29.724Z,4.63
2019-04-11T18:14:01.005Z,6.00
2019-04-11T18:16:31.841Z,4.47
2019-04-11T18:19:05.828Z,4.97
2019-04-11T18:21:34.915Z,4.63
2019-04-11T18:24:06.804Z,4.83
2019-04-11T18:26:37.756Z,4.40
2019-04-11T18:29:08.315Z,5.57
2019-04-11T18:31:38.687Z,5.90
2019-04-11T18:34:08.880Z,5.73
2019-04-11T18:36:39.241Z,4.97
2019-04-11T18:39:10.266Z,3.70
2019-04-11T18:41:41.333Z,4.57
2019-04-11T18:44:12.445Z,4.93
2019-04-11T18:46:42.784Z,4.03
2019-04-11T18:49:13.000Z,4.97
2019-04-11T18:51:43.467Z,5.17
2019-04-11T18:54:14.089Z,4.53
2019-04-11T18:56:44.302Z,5.13
2019-04-11T18:59:14.636Z,4.60
2019-04-11T19:01:45.502Z,5.40
2019-04-11T19:04:16.759Z,5.23
2019-04-11T19:06:47.381Z,5.97
2019-04-11T19:09:19.487Z,4.67
2019-04-11T19:11:51.509Z,5.70
2019-04-11T19:14:24.563Z,5.07
2019-04-11T19:16:54.259Z,4.60
2019-04-11T19:19:27.362Z,4.53
2019-04-11T19:21:57.516Z,3.87
2019-04-11T19:24:35.466Z,4.77
2019-04-11T19:27:00.115Z,4.53
2019-04-11T19:29:30.656Z,5.90
2019-04-11T19:32:01.010Z,4.80
2019-04-11T19:34:31.335Z,4.90
2019-04-11T19:37:03.839Z,5.50
2019-04-11T19:39:34.847Z,4.07
2019-04-11T19:42:08.970Z,4.33
2019-04-11T19:44:37.590Z,4.23
2019-04-11T19:47:08.119Z,5.10
2019-04-11T19:49:39.700Z,4.50
2019-04-11T19:52:09.956Z,5.43
2019-04-11T19:54:40.211Z,4.23
2019-04-11T19:57:11.039Z,4.10
2019-04-11T19:59:41.344Z,5.30
2019-04-11T20:02:11.675Z,4.53
2019-04-11T20:04:42.030Z,4.55
2019-04-11T20:07:12.636Z,5.53
2019-04-11T20:09:42.868Z,5.17
2019-04-11T20:12:13.193Z,4.80
2019-04-11T20:14:43.729Z,3.83
2019-04-11T20:17:13.985Z,4.50
2019-04-11T20:19:45.229Z,4.30
2019-04-11T20:22:15.420Z,5.60
2019-04-11T20:24:46.913Z,4.83
2019-04-11T20:27:20.032Z,7.17
2019-04-11T20:29:52.130Z,5.77
2019-04-11T20:32:21.236Z,4.13
2019-04-11T20:34:51.733Z,4.97
2019-04-11T20:37:24.416Z,4.23
2019-04-11T20:39:54.798Z,6.33
2019-04-11T20:42:24.994Z,4.60
2019-04-11T20:44:58.313Z,4.73
2019-04-11T20:47:29.534Z,4.90
2019-04-11T20:50:06.944Z,6.20
2019-04-11T20:52:32.652Z,6.37
2019-04-11T20:55:04.171Z,8.10
2019-04-11T20:57:34.863Z,7.10
2019-04-11T21:00:05.892Z,6.07
2019-04-11T21:02:38.382Z,5.45
2019-04-11T21:05:12.249Z,5.87
2019-04-11T21:07:42.447Z,4.83
2019-04-11T21:10:13.135Z,5.87
2019-04-11T21:12:43.421Z,5.07
2019-04-11T21:15:14.159Z,5.23
2019-04-11T21:17:44.725Z,4.43
2019-04-11T21:20:15.584Z,6.40
2019-04-11T21:22:46.814Z,5.03
2019-04-11T21:25:17.046Z,5.07
2019-04-11T21:27:47.728Z,5.53
2019-04-11T21:30:18.329Z,4.80
2019-04-11T21:32:49.024Z,5.50
2019-04-11T21:35:19.731Z,5.33
2019-04-11T21:37:50.326Z,4.60
2019-04-11T21:40:20.960Z,5.97
2019-04-11T21:42:51.702Z,6.40
2019-04-11T21:45:22.186Z,5.93
2019-04-11T21:47:52.717Z,4.40
2019-04-11T21:50:22.970Z,5.73
2019-04-11T21:52:53.618Z,4.93
2019-04-11T21:55:24.909Z,7.83
2019-04-11T21:57:55.212Z,8.10
2019-04-11T22:00:36.508Z,5.87
2019-04-11T22:03:09.503Z,6.70
2019-04-11T22:05:40.035Z,5.90
2019-04-11T22:08:10.250Z,6.97
2019-04-11T22:10:41.057Z,4.73
2019-04-11T22:13:11.733Z,6.00
2019-04-11T22:15:43.058Z,6.00
2019-04-11T22:18:16.833Z,5.20
2019-04-11T22:20:45.870Z,4.70
2019-04-11T22:23:16.223Z,5.70
2019-04-11T22:25:46.575Z,5.43
2019-04-11T22:28:16.963Z,6.50
2019-04-11T22:30:48.091Z,6.13
2019-04-11T22:33:32.278Z,6.50
2019-04-11T22:36:02.784Z,5.70
2019-04-11T22:38:33.329Z,6.57
2019-04-11T22:41:03.564Z,6.27
2019-04-11T22:43:37.878Z,6.47
2019-04-11T22:46:07.936Z,6.83
2019-04-11T22:48:39.818Z,5.40
2019-04-11T22:51:11.326Z,7.47
2019-04-11T22:53:43.205Z,6.50
2019-04-11T22:56:16.139Z,6.80
2019-04-11T22:58:47.673Z,6.57
2019-04-11T23:01:17.835Z,5.30
2019-04-11T23:03:59.728Z,7.00
2019-04-11T23:06:30.002Z,6.47
2019-04-11T23:09:00.251Z,7.77
2019-04-11T23:11:30.651Z,6.33
2019-04-11T23:14:00.962Z,7.03
2019-04-11T23:16:32.177Z,6.50
2019-04-11T23:19:02.538Z,6.53
2019-04-11T23:21:32.747Z,7.00
2019-04-11T23:24:11.454Z,6.03
2019-04-11T23:26:35.294Z,9.33
2019-04-11T23:29:05.572Z,5.93
2019-04-11T23:31:36.154Z,6.17
2019-04-11T23:34:06.436Z,5.00
2019-04-11T23:36:36.628Z,6.07
2019-04-11T23:39:08.041Z,4.90
2019-04-11T23:41:38.306Z,5.47
2019-04-11T23:44:08.911Z,5.87
2019-04-11T23:46:39.205Z,5.27
2019-04-11T23:49:09.876Z,6.07
2019-04-11T23:51:40.038Z,5.50
2019-04-11T23:54:10.607Z,5.53
2019-04-11T23:56:41.025Z,5.67
2019-04-11T23:59:11.598Z,6.40
